createdAt,value
2022-08-12T00:00:44.564Z,100379.83
2022-08-12T00:02:02.644Z,100385.36
2022-08-12T00:02:51.356Z,100381.38
2022-08-12T00:03:54.449Z,100381.20
2022-08-12T00:04:57.581Z,100382.12
2022-08-12T00:06:04.803Z,100379.13
2022-08-12T00:07:06.877Z,100371.20
2022-08-12T00:08:09.522Z,100371.70
2022-08-12T00:09:11.830Z,100383.65
2022-08-12T00:10:16.282Z,100379.58
2022-08-12T00:11:19.316Z,100387.94
2022-08-12T00:12:21.919Z,100371.20
2022-08-12T00:13:24.587Z,100385.11
2022-08-12T00:14:27.158Z,100378.85
2022-08-12T00:15:31.155Z,100387.94
2022-08-12T00:16:34.157Z,100383.55
2022-08-12T00:17:38.760Z,100385.36
2022-08-12T00:18:41.353Z,100378.56
2022-08-12T00:19:43.973Z,100382.95
2022-08-12T00:20:46.985Z,100381.39
2022-08-12T00:21:49.570Z,100377.97
2022-08-12T00:22:58.980Z,100383.36
2022-08-12T00:23:58.039Z,100380.56
2022-08-12T00:25:01.721Z,100379.17
2022-08-12T00:26:20.958Z,100389.03
2022-08-12T00:27:10.286Z,100384.81
2022-08-12T00:28:13.172Z,100379.97
2022-08-12T00:29:15.821Z,100380.27
2022-08-12T00:30:18.399Z,100382.81
2022-08-12T00:31:20.649Z,100383.11
2022-08-12T00:32:36.027Z,100383.94
2022-08-12T00:33:38.659Z,100387.36
2022-08-12T00:34:33.405Z,100367.55
2022-08-12T00:35:36.800Z,100383.39
2022-08-12T00:36:40.136Z,100387.94
2022-08-12T00:37:44.572Z,100381.72
2022-08-12T00:38:47.118Z,100388.64
2022-08-12T00:39:50.783Z,100385.94
2022-08-12T00:40:53.760Z,100385.50
2022-08-12T00:41:57.009Z,100375.47
2022-08-12T00:43:01.350Z,100382.70
2022-08-12T00:44:05.637Z,100383.11
2022-08-12T00:45:09.182Z,100376.89
2022-08-12T00:46:12.055Z,100374.09
2022-08-12T00:47:24.554Z,100378.31
2022-08-12T00:48:20.824Z,100385.66
2022-08-12T00:49:25.056Z,100376.31
2022-08-12T00:50:30.135Z,100387.23
2022-08-12T00:51:34.445Z,100381.73
2022-08-12T00:52:37.067Z,100382.71
2022-08-12T00:53:39.637Z,100381.70
2022-08-12T00:54:51.434Z,100388.09
2022-08-12T00:55:56.695Z,100392.46
2022-08-12T00:57:02.563Z,100387.41
2022-08-12T00:58:07.165Z,100394.17
2022-08-12T00:59:10.128Z,100397.30
2022-08-12T01:00:17.255Z,100394.75
2022-08-12T01:01:21.849Z,100391.77
2022-08-12T01:02:27.907Z,100390.82
2022-08-12T01:03:33.258Z,100391.95
2022-08-12T01:04:38.466Z,100393.66
2022-08-12T01:05:44.006Z,100390.56
2022-08-12T01:06:51.136Z,100394.49
2022-08-12T01:07:52.111Z,100394.75
2022-08-12T01:08:54.690Z,100397.73
2022-08-12T01:09:57.356Z,100391.95
2022-08-12T01:10:59.935Z,100386.56
2022-08-12T01:12:04.485Z,100382.60
2022-08-12T01:13:19.366Z,100382.60
2022-08-12T01:14:12.110Z,100387.41
2022-08-12T01:15:14.731Z,100385.55
2022-08-12T01:16:20.101Z,100391.38
2022-08-12T01:17:22.886Z,100389.66
2022-08-12T01:18:34.358Z,100389.41
2022-08-12T01:19:37.191Z,100385.33
2022-08-12T01:20:49.144Z,100393.95
2022-08-12T01:22:24.131Z,100389.66
2022-08-12T01:23:33.268Z,100388.56
2022-08-12T01:24:56.840Z,100386.16
2022-08-12T01:26:02.674Z,100395.48
2022-08-12T01:27:08.160Z,100385.87
2022-08-12T01:28:11.596Z,100386.02
2022-08-12T01:29:17.341Z,100397.33
2022-08-12T01:30:20.848Z,100386.30
2022-08-12T01:31:23.214Z,100388.56
2022-08-12T01:32:28.404Z,100387.58
2022-08-12T01:33:34.302Z,100383.36
2022-08-12T01:34:39.106Z,100385.03
2022-08-12T01:35:57.788Z,100390.41
2022-08-12T01:36:58.044Z,100394.52
2022-08-12T01:39:15.924Z,100388.85
2022-08-12T01:40:34.713Z,100393.54
2022-08-12T01:41:37.255Z,100394.52
2022-08-12T01:42:48.684Z,100390.84
2022-08-12T01:43:52.486Z,100377.41
2022-08-12T01:44:55.752Z,100396.81
2022-08-12T01:46:17.938Z,100398.05
2022-08-12T01:47:42.221Z,100405.58
2022-08-12T01:48:57.518Z,100409.53
2022-08-12T01:50:21.616Z,100413.23
2022-08-12T01:52:20.289Z,100427.67
2022-08-12T01:53:05.556Z,100424.43
2022-08-12T01:54:09.203Z,100427.95
2022-08-12T01:55:14.829Z,100422.30
2022-08-12T01:56:21.363Z,100425.42
2022-08-12T01:57:59.312Z,100411.41
2022-08-12T01:58:53.221Z,100404.03
2022-08-12T02:00:01.831Z,100408.84
2022-08-12T02:01:08.033Z,100401.78
2022-08-12T02:02:21.108Z,100402.09
2022-08-12T02:03:45.416Z,100398.52
2022-08-12T02:05:07.935Z,100400.52
2022-08-12T02:06:14.678Z,100408.74
2022-08-12T02:07:29.057Z,100402.52
2022-08-12T02:08:44.132Z,100406.87
2022-08-12T02:09:49.993Z,100404.75
2022-08-12T02:11:05.880Z,100410.59
2022-08-12T02:12:14.685Z,100407.45
2022-08-12T02:13:48.210Z,100397.44
2022-08-12T02:14:30.848Z,100398.82
2022-08-12T02:15:54.854Z,100403.93
2022-08-12T02:17:09.688Z,100402.52
2022-08-12T02:18:30.799Z,100407.89
2022-08-12T02:19:42.674Z,100410.73
2022-08-12T02:21:00.816Z,100407.91
2022-08-12T02:22:13.388Z,100401.94
2022-08-12T02:23:17.389Z,100406.48
2022-08-12T02:24:22.450Z,100406.62
2022-08-12T02:25:40.541Z,100395.00
2022-08-12T02:26:45.952Z,100404.21
2022-08-12T02:27:51.947Z,100410.45
2022-08-12T02:28:54.756Z,100405.91
2022-08-12T02:29:57.311Z,100405.91
2022-08-12T02:31:02.693Z,100410.28
2022-08-12T02:32:06.498Z,100404.07
2022-08-12T02:33:10.145Z,100402.95
2022-08-12T02:34:15.088Z,100401.08
2022-08-12T02:35:20.171Z,100405.33
2022-08-12T02:36:24.472Z,100405.33
2022-08-12T02:37:30.642Z,100403.94
2022-08-12T02:38:33.327Z,100399.67
2022-08-12T02:39:38.862Z,100398.00
2022-08-12T02:40:42.727Z,100396.40
2022-08-12T02:41:48.197Z,100406.31
2022-08-12T02:42:54.193Z,100408.41
2022-08-12T02:44:03.244Z,100403.03
2022-08-12T02:45:07.192Z,100404.31
2022-08-12T02:46:14.905Z,100407.98
2022-08-12T02:47:58.117Z,100403.16
2022-08-12T02:48:44.342Z,100404.59
2022-08-12T02:49:50.505Z,100403.90
2022-08-12T02:50:55.031Z,100408.58
2022-08-12T02:51:59.175Z,100406.45
2022-08-12T02:53:03.929Z,100408.72
2022-08-12T02:54:07.404Z,100400.34
2022-08-12T02:55:13.522Z,100405.30
2022-08-12T02:56:18.571Z,100411.41
2022-08-12T02:57:21.855Z,100405.28
2022-08-12T02:58:30.673Z,100401.06
2022-08-12T02:59:30.414Z,100407.13
2022-08-12T03:00:34.399Z,100402.03
2022-08-12T03:01:42.582Z,100399.34
2022-08-12T03:03:59.216Z,100399.64
2022-08-12T03:05:02.822Z,100407.00
2022-08-12T03:06:14.698Z,100406.98
2022-08-12T03:07:45.918Z,100405.01
2022-08-12T03:08:37.560Z,100409.27
2022-08-12T03:11:02.894Z,100396.40
2022-08-12T03:12:07.124Z,100402.17
2022-08-12T03:13:13.656Z,100398.19
2022-08-12T03:14:16.755Z,100394.53
2022-08-12T03:15:23.368Z,100398.50
2022-08-12T03:16:33.194Z,100392.13
2022-08-12T03:17:44.942Z,100400.88
2022-08-12T03:18:48.532Z,100386.34
2022-08-12T03:20:09.409Z,100391.27
2022-08-12T03:20:57.898Z,100385.02
2022-08-12T03:22:09.189Z,100384.61
2022-08-12T03:23:23.110Z,100398.17
2022-08-12T03:24:17.458Z,100384.05
2022-08-12T03:25:22.243Z,100391.84
2022-08-12T03:26:27.544Z,100387.34
2022-08-12T03:27:30.877Z,100397.91
2022-08-12T03:28:35.126Z,100390.44
2022-08-12T03:29:43.392Z,100399.20
2022-08-12T03:30:45.000Z,100397.64
2022-08-12T03:31:47.995Z,100407.80
2022-08-12T03:32:52.230Z,100402.44
2022-08-12T03:34:00.957Z,100396.80
2022-08-12T03:35:03.633Z,100393.95
2022-08-12T03:36:10.162Z,100397.47
2022-08-12T03:37:15.691Z,100388.01
2022-08-12T03:38:19.244Z,100393.13
2022-08-12T03:39:22.998Z,100388.02
2022-08-12T03:40:33.487Z,100380.09
2022-08-12T03:41:39.453Z,100395.63
2022-08-12T03:42:46.700Z,100393.53
2022-08-12T03:44:00.159Z,100399.90
2022-08-12T03:45:20.710Z,100395.63
2022-08-12T03:47:55.323Z,100394.55
2022-08-12T03:48:58.961Z,100393.14
2022-08-12T03:50:03.133Z,100400.73
2022-08-12T03:51:07.095Z,100405.25
2022-08-12T03:52:09.406Z,100402.45
2022-08-12T03:53:12.120Z,100404.17
2022-08-12T03:54:14.469Z,100405.01
2022-08-12T03:55:17.245Z,100403.00
2022-08-12T03:56:20.414Z,100398.78
2022-08-12T03:57:23.105Z,100403.88
2022-08-12T03:58:25.871Z,100412.22
2022-08-12T03:59:28.139Z,100412.80
2022-08-12T04:00:33.568Z,100404.30
2022-08-12T04:01:40.861Z,100402.46
2022-08-12T04:02:40.956Z,100408.67
2022-08-12T04:03:44.420Z,100412.09
2022-08-12T04:04:49.539Z,100408.99
2022-08-12T04:05:55.396Z,100407.84
2022-08-12T04:06:57.646Z,100409.97
2022-08-12T04:08:00.018Z,100402.73
2022-08-12T04:09:05.115Z,100395.41
2022-08-12T04:10:09.433Z,100404.45
2022-08-12T04:11:11.716Z,100400.47
2022-08-12T04:12:14.773Z,100399.63
2022-08-12T04:13:21.776Z,100405.16
2022-08-12T04:14:26.580Z,100349.80
2022-08-12T04:15:30.876Z,100390.03
2022-08-12T04:16:34.968Z,100387.34
2022-08-12T04:17:37.359Z,100383.65
2022-08-12T04:18:42.768Z,100392.54
2022-08-12T04:19:46.286Z,100397.64
2022-08-12T04:20:48.816Z,100409.13
2022-08-12T04:22:02.057Z,100409.13
2022-08-12T04:22:56.313Z,100393.42
2022-08-12T04:23:59.772Z,100389.73
2022-08-12T04:25:02.705Z,100393.56
2022-08-12T04:26:06.605Z,100384.39
2022-08-12T04:27:10.837Z,100389.45
2022-08-12T04:28:14.093Z,100396.67
2022-08-12T04:29:16.781Z,100392.00
2022-08-12T04:30:33.328Z,100394.41
2022-08-12T04:32:51.926Z,100384.39
2022-08-12T04:33:54.542Z,100389.45
2022-08-12T04:34:56.899Z,100390.32
2022-08-12T04:35:59.486Z,100388.75
2022-08-12T04:37:02.168Z,100382.53
2022-08-12T04:38:05.773Z,100391.44
2022-08-12T04:39:09.647Z,100395.42
2022-08-12T04:40:14.344Z,100395.70
2022-08-12T04:41:17.667Z,100393.17
2022-08-12T04:42:21.057Z,100397.44
2022-08-12T04:44:00.003Z,100394.02
2022-08-12T04:44:28.190Z,100396.70
2022-08-12T04:45:32.146Z,100400.23
2022-08-12T04:46:35.484Z,100405.63
2022-08-12T04:47:38.627Z,100402.35
2022-08-12T04:48:41.372Z,100404.73
2022-08-12T04:49:45.439Z,100402.91
2022-08-12T04:50:47.862Z,100394.93
2022-08-12T04:51:53.560Z,100393.66
2022-08-12T04:52:55.359Z,100393.22
2022-08-12T04:53:57.547Z,100395.48
2022-08-12T04:55:00.603Z,100396.72
2022-08-12T04:56:04.131Z,100388.53
2022-08-12T04:57:06.878Z,100397.83
2022-08-12T04:58:09.867Z,100392.99
2022-08-12T04:59:14.834Z,100388.25
2022-08-12T05:00:17.665Z,100389.66
2022-08-12T05:01:20.064Z,100387.60
2022-08-12T05:02:23.174Z,100381.83
2022-08-12T05:03:26.558Z,100376.29
2022-08-12T05:04:30.202Z,100380.87
2022-08-12T05:05:36.301Z,100377.35
2022-08-12T05:06:38.164Z,100380.00
2022-08-12T05:07:53.088Z,100381.42
2022-08-12T05:08:44.748Z,100379.08
2022-08-12T05:10:00.757Z,100381.80
2022-08-12T05:10:51.871Z,100382.40
2022-08-12T05:11:54.649Z,100375.45
2022-08-12T05:13:00.106Z,100376.84
2022-08-12T05:14:02.702Z,100370.48
2022-08-12T05:15:18.940Z,100371.96
2022-08-12T05:16:11.308Z,100364.44
2022-08-12T05:17:15.495Z,100363.30
2022-08-12T05:18:20.499Z,100361.88
2022-08-12T05:19:22.805Z,100363.42
2022-08-12T05:20:26.679Z,100365.56
2022-08-12T05:21:29.380Z,100371.80
2022-08-12T05:22:31.691Z,100378.28
2022-08-12T05:23:37.279Z,100372.37
2022-08-12T05:24:40.083Z,100378.44
2022-08-12T05:25:43.881Z,100378.08
2022-08-12T05:26:46.172Z,100368.05
2022-08-12T05:27:56.870Z,100368.91
2022-08-12T05:28:53.376Z,100371.19
2022-08-12T05:30:07.324Z,100365.58
2022-08-12T05:31:02.534Z,100365.05
2022-08-12T05:32:07.111Z,100370.03
2022-08-12T05:33:10.944Z,100367.17
2022-08-12T05:34:13.304Z,100374.56
2022-08-12T05:35:15.489Z,100370.27
2022-08-12T05:36:19.385Z,100367.09
2022-08-12T05:37:21.903Z,100372.06
2022-08-12T05:38:24.209Z,100367.31
2022-08-12T05:39:26.735Z,100371.30
2022-08-12T05:40:30.050Z,100372.91
2022-08-12T05:41:34.135Z,100368.28
2022-08-12T05:42:36.488Z,100372.94
2022-08-12T05:43:38.821Z,100368.16
2022-08-12T05:44:40.996Z,100370.66
2022-08-12T05:45:44.979Z,100373.02
2022-08-12T05:46:47.871Z,100368.50
2022-08-12T05:47:53.990Z,100362.27
2022-08-12T05:48:55.180Z,100360.75
2022-08-12T05:49:57.450Z,100368.05
2022-08-12T05:51:00.229Z,100357.76
2022-08-12T05:52:02.645Z,100365.01
2022-08-12T05:53:05.221Z,100371.56
2022-08-12T05:54:07.933Z,100360.97
2022-08-12T05:55:11.730Z,100359.44
2022-08-12T05:56:27.926Z,100359.58
2022-08-12T05:57:30.389Z,100366.67
2022-08-12T05:58:32.703Z,100369.83
2022-08-12T05:59:35.066Z,100373.92
2022-08-12T06:00:38.110Z,100368.02
2022-08-12T06:02:09.874Z,100376.95
2022-08-12T06:02:45.974Z,100375.09
2022-08-12T06:03:49.106Z,100376.59
2022-08-12T06:04:51.420Z,100381.20
2022-08-12T06:05:54.953Z,100377.14
2022-08-12T06:06:58.880Z,100382.30
2022-08-12T06:08:04.648Z,100372.69
2022-08-12T06:09:08.770Z,100388.22
2022-08-12T06:10:13.407Z,100401.09
2022-08-12T06:11:15.885Z,100413.44
2022-08-12T06:12:18.187Z,100402.11
2022-08-12T06:13:28.734Z,100396.71
2022-08-12T06:14:24.718Z,100380.13
2022-08-12T06:15:29.292Z,100380.70
2022-08-12T06:16:31.753Z,100388.53
2022-08-12T06:17:34.059Z,100399.44
2022-08-12T06:18:37.282Z,100391.44
2022-08-12T06:20:25.844Z,100388.90
2022-08-12T06:20:48.701Z,100377.27
2022-08-12T06:21:51.334Z,100379.06
2022-08-12T06:22:54.444Z,100393.29
2022-08-12T06:23:57.735Z,100394.72
2022-08-12T06:25:00.132Z,100406.69
2022-08-12T06:26:04.925Z,100383.49
2022-08-12T06:27:07.366Z,100388.02
2022-08-12T06:28:14.896Z,100391.80
2022-08-12T06:29:17.288Z,100383.86
2022-08-12T06:30:33.528Z,100383.75
2022-08-12T06:31:27.465Z,100381.70
2022-08-12T06:32:30.189Z,100376.16
2022-08-12T06:33:55.483Z,100380.19
2022-08-12T06:35:23.756Z,100374.66
2022-08-12T06:35:48.291Z,100373.95
2022-08-12T06:36:49.475Z,100375.66
2022-08-12T06:37:56.926Z,100367.20
2022-08-12T06:38:57.963Z,100364.67
2022-08-12T06:40:04.370Z,100367.04
2022-08-12T06:41:07.248Z,100365.56
2022-08-12T06:42:33.074Z,100382.97
2022-08-12T06:43:24.234Z,100384.17
2022-08-12T06:44:26.511Z,100374.83
2022-08-12T06:45:45.462Z,100339.29
2022-08-12T06:46:35.979Z,100381.95
2022-08-12T06:47:40.129Z,100369.28
2022-08-12T06:48:42.970Z,100369.27
2022-08-12T06:49:45.788Z,100369.27
2022-08-12T06:50:50.200Z,100383.78
2022-08-12T06:51:56.604Z,100374.33
2022-08-12T06:52:59.793Z,100326.64
2022-08-12T06:54:05.496Z,100380.77
2022-08-12T06:55:10.720Z,100375.53
2022-08-12T06:56:13.781Z,100368.58
2022-08-12T06:58:08.294Z,100379.70
2022-08-12T06:58:21.312Z,100376.33
2022-08-12T06:59:23.881Z,100380.91
2022-08-12T07:00:32.627Z,100379.73
2022-08-12T07:01:33.907Z,100385.15
2022-08-12T07:02:37.153Z,100379.37
2022-08-12T07:03:39.750Z,100378.23
2022-08-12T07:04:42.524Z,100364.49
2022-08-12T07:05:44.894Z,100373.27
2022-08-12T07:06:47.500Z,100368.27
2022-08-12T07:08:05.207Z,100364.86
2022-08-12T07:09:13.301Z,100368.23
2022-08-12T07:10:14.309Z,100362.42
2022-08-12T07:11:16.575Z,100360.43
2022-08-12T07:12:18.962Z,100360.43
2022-08-12T07:13:21.390Z,100362.28
2022-08-12T07:14:23.553Z,100364.31
2022-08-12T07:15:26.892Z,100365.20
2022-08-12T07:16:29.707Z,100365.27
2022-08-12T07:17:33.240Z,100367.22
2022-08-12T07:18:38.527Z,100367.31
2022-08-12T07:19:45.364Z,100362.11
2022-08-12T07:20:52.812Z,100359.36
2022-08-12T07:22:00.354Z,100354.64
2022-08-12T07:22:58.057Z,100363.09
2022-08-12T07:24:00.529Z,100360.59
2022-08-12T07:25:05.790Z,100357.52
2022-08-12T07:26:12.071Z,100363.44
2022-08-12T07:27:15.404Z,100366.81
2022-08-12T07:28:20.304Z,100373.59
2022-08-12T07:29:24.097Z,100378.48
2022-08-12T07:30:33.509Z,100371.54
2022-08-12T07:31:37.105Z,100366.78
2022-08-12T07:32:39.434Z,100367.47
2022-08-12T07:33:42.566Z,100369.80
2022-08-12T07:34:47.753Z,100366.74
2022-08-12T07:35:51.776Z,100364.65
2022-08-12T07:36:55.841Z,100362.77
2022-08-12T07:37:59.821Z,100364.30
2022-08-12T07:39:02.337Z,100362.91
2022-08-12T07:40:07.594Z,100358.52
2022-08-12T07:41:15.693Z,100358.87
2022-08-12T07:42:18.602Z,100353.81
2022-08-12T07:43:21.460Z,100355.52
2022-08-12T07:44:23.812Z,100354.16
2022-08-12T07:45:26.120Z,100357.84
2022-08-12T07:46:32.412Z,100351.91
2022-08-12T07:47:35.712Z,100361.53
2022-08-12T07:48:44.762Z,100359.69
2022-08-12T07:50:04.247Z,100350.39
2022-08-12T07:50:52.347Z,100355.63
2022-08-12T07:51:55.444Z,100346.32
2022-08-12T07:52:58.029Z,100352.15
2022-08-12T07:54:03.037Z,100359.45
2022-08-12T07:55:06.977Z,100360.77
2022-08-12T07:56:10.853Z,100352.45
2022-08-12T07:57:13.416Z,100354.42
2022-08-12T07:58:15.825Z,100349.52
2022-08-12T07:59:18.117Z,100304.59
2022-08-12T08:00:20.752Z,100354.65
2022-08-12T08:01:23.407Z,100350.55
2022-08-12T08:02:28.045Z,100344.61
2022-08-12T08:03:30.732Z,100337.52
2022-08-12T08:04:33.024Z,100341.33
2022-08-12T08:05:36.190Z,100344.31
2022-08-12T08:06:42.539Z,100348.22
2022-08-12T08:07:44.896Z,100346.31
2022-08-12T08:08:47.152Z,100341.00
2022-08-12T08:09:49.433Z,100345.59
2022-08-12T08:12:07.892Z,100342.32
2022-08-12T08:13:10.719Z,100348.06
2022-08-12T08:14:14.129Z,100343.48
2022-08-12T08:15:16.801Z,100346.19
2022-08-12T08:16:19.675Z,100345.48
2022-08-12T08:17:22.559Z,100354.63
2022-08-12T08:18:26.209Z,100348.84
2022-08-12T08:19:29.437Z,100354.83
2022-08-12T08:20:35.900Z,100353.97
2022-08-12T08:21:38.258Z,100349.02
2022-08-12T08:22:42.632Z,100343.68
2022-08-12T08:23:46.744Z,100343.15
2022-08-12T08:24:49.752Z,100346.92
2022-08-12T08:25:51.995Z,100334.08
2022-08-12T08:26:57.209Z,100331.19
2022-08-12T08:28:08.333Z,100336.02
2022-08-12T08:29:10.847Z,100346.27
2022-08-12T08:30:15.830Z,100339.27
2022-08-12T08:31:18.388Z,100332.66
2022-08-12T08:32:20.740Z,100341.95
2022-08-12T08:34:04.812Z,100336.00
2022-08-12T08:34:54.439Z,100342.34
2022-08-12T08:35:47.012Z,100327.56
2022-08-12T08:36:37.983Z,100327.48
2022-08-12T08:37:40.588Z,100330.38
2022-08-12T08:38:44.097Z,100329.23
2022-08-12T08:39:48.424Z,100325.78
2022-08-12T08:40:51.286Z,100324.27
2022-08-12T08:42:15.682Z,100323.17
2022-08-12T08:42:59.186Z,100325.34
2022-08-12T08:44:01.715Z,100326.08
2022-08-12T08:45:05.752Z,100331.53
2022-08-12T08:46:08.417Z,100328.70
2022-08-12T08:47:12.299Z,100333.20
2022-08-12T08:48:15.705Z,100332.78
2022-08-12T08:49:17.980Z,100329.39
2022-08-12T08:50:22.135Z,100327.48
2022-08-12T08:51:24.498Z,100330.92
2022-08-12T08:52:45.626Z,100331.31
2022-08-12T08:53:31.194Z,100318.95
2022-08-12T08:54:34.183Z,100317.84
2022-08-12T08:56:01.626Z,100324.13
2022-08-12T08:56:41.978Z,100322.99
2022-08-12T08:57:46.629Z,100320.09
2022-08-12T08:58:49.070Z,100317.74
2022-08-12T08:59:51.846Z,100326.44
2022-08-12T09:00:54.749Z,100319.55
2022-08-12T09:01:57.494Z,100325.29
2022-08-12T09:03:00.476Z,100326.35
2022-08-12T09:05:09.714Z,100336.02
2022-08-12T09:05:15.160Z,100344.16
2022-08-12T09:06:17.041Z,100344.21
2022-08-12T09:07:51.891Z,100354.42
2022-08-12T09:08:26.779Z,100352.08
2022-08-12T09:09:34.273Z,100357.50
2022-08-12T09:10:32.715Z,100345.64
2022-08-12T09:12:07.538Z,100347.25
2022-08-12T09:12:39.896Z,100351.02
2022-08-12T09:14:11.913Z,100352.21
2022-08-12T09:14:51.419Z,100359.82
2022-08-12T09:15:57.504Z,100354.58
2022-08-12T09:16:58.003Z,100354.58
2022-08-12T09:18:01.555Z,100362.63
2022-08-12T09:19:05.607Z,100363.30
2022-08-12T09:20:11.101Z,100362.84
2022-08-12T09:21:15.334Z,100363.00
2022-08-12T09:22:18.538Z,100366.74
2022-08-12T09:23:58.837Z,100361.89
2022-08-12T09:24:27.642Z,100371.27
2022-08-12T09:26:45.819Z,100382.59
2022-08-12T09:28:30.965Z,100376.95
2022-08-12T09:28:44.353Z,100374.14
2022-08-12T09:30:11.094Z,100371.70
2022-08-12T09:30:52.075Z,100389.79
2022-08-12T09:32:07.413Z,100386.30
2022-08-12T09:33:05.898Z,100384.89
2022-08-12T09:34:25.894Z,100385.26
2022-08-12T09:35:22.215Z,100384.29
2022-08-12T09:36:13.074Z,100380.09
2022-08-12T09:37:19.327Z,100390.67
2022-08-12T09:38:28.568Z,100394.80
2022-08-12T09:40:01.851Z,100406.96
2022-08-12T09:40:57.633Z,100407.92
2022-08-12T09:42:09.003Z,100404.56
2022-08-12T09:43:04.860Z,100401.12
2022-08-12T09:44:01.029Z,100410.70
2022-08-12T09:45:17.904Z,100405.63
2022-08-12T09:46:19.616Z,100409.39
2022-08-12T09:47:10.420Z,100406.50
2022-08-12T09:48:20.352Z,100406.70
2022-08-12T09:49:17.258Z,100397.20
2022-08-12T09:50:21.774Z,100401.28
2022-08-12T09:51:25.022Z,100402.20
2022-08-12T09:52:32.058Z,100393.41
2022-08-12T09:53:38.787Z,100401.55
2022-08-12T09:54:42.964Z,100396.78
2022-08-12T09:56:05.657Z,100398.54
2022-08-12T09:57:01.631Z,100402.92
2022-08-12T09:58:46.070Z,100407.39
2022-08-12T09:59:01.722Z,100410.11
2022-08-12T10:00:15.052Z,100394.78
2022-08-12T10:01:15.429Z,100400.56
2022-08-12T10:02:42.191Z,100402.56
2022-08-12T10:03:32.069Z,100405.39
2022-08-12T10:04:23.358Z,100407.09
2022-08-12T10:06:27.838Z,100403.99
2022-08-12T10:06:36.373Z,100404.23
2022-08-12T10:07:39.965Z,100398.50
2022-08-12T10:08:40.833Z,100398.50
2022-08-12T10:09:58.509Z,100407.50
2022-08-12T10:10:48.469Z,100413.94
2022-08-12T10:12:11.288Z,100414.55
2022-08-12T10:13:06.684Z,100407.86
2022-08-12T10:14:04.729Z,100413.28
2022-08-12T10:15:09.547Z,100411.00
2022-08-12T10:16:23.146Z,100411.77
2022-08-12T10:17:25.688Z,100413.47
2022-08-12T10:18:28.208Z,100410.28
2022-08-12T10:19:36.386Z,100406.80
2022-08-12T10:20:34.986Z,100413.97
2022-08-12T10:21:38.874Z,100410.22
2022-08-12T10:22:41.461Z,100409.63
2022-08-12T10:23:48.528Z,100414.62
2022-08-12T10:24:53.359Z,100415.64
2022-08-12T10:26:34.687Z,100418.72
2022-08-12T10:26:59.693Z,100416.75
2022-08-12T10:28:09.797Z,100417.77
2022-08-12T10:30:01.980Z,100416.25
2022-08-12T10:30:41.933Z,100417.59
2022-08-12T10:31:20.499Z,100416.75
2022-08-12T10:32:45.079Z,100417.52
2022-08-12T10:33:30.687Z,100420.71
2022-08-12T10:34:34.037Z,100418.29
2022-08-12T10:35:38.588Z,100425.84
2022-08-12T10:36:44.315Z,100420.30
2022-08-12T10:38:38.738Z,100417.70
2022-08-12T10:38:51.560Z,100417.34
2022-08-12T10:40:06.243Z,100415.58
2022-08-12T10:41:00.488Z,100407.61
2022-08-12T10:42:10.538Z,100406.66
2022-08-12T10:43:12.741Z,100409.56
2022-08-12T10:44:17.739Z,100409.77
2022-08-12T10:45:20.604Z,100410.35
2022-08-12T10:46:31.001Z,100418.57
2022-08-12T10:48:20.643Z,100410.25
2022-08-12T10:48:38.663Z,100406.91
2022-08-12T10:50:04.663Z,100411.91
2022-08-12T10:50:56.624Z,100416.14
2022-08-12T10:52:03.988Z,100412.98
2022-08-12T10:52:58.731Z,100408.28
2022-08-12T10:54:02.277Z,100403.82
2022-08-12T10:55:13.074Z,100411.00
2022-08-12T10:56:14.774Z,100415.34
2022-08-12T10:58:13.608Z,100405.03
2022-08-12T10:58:28.264Z,100404.85
2022-08-12T11:00:29.169Z,100404.94
2022-08-12T11:00:45.361Z,100406.44
2022-08-12T11:04:19.580Z,100411.66
2022-08-12T11:04:26.474Z,100406.82
2022-08-12T11:04:28.594Z,100403.82
2022-08-12T11:04:59.466Z,100404.27
2022-08-12T11:07:07.911Z,100403.11
2022-08-12T11:08:35.971Z,100408.55
2022-08-12T11:08:38.558Z,100414.92
2022-08-12T11:09:51.320Z,100418.29
2022-08-12T11:10:27.869Z,100415.10
2022-08-12T11:12:36.877Z,100410.83
2022-08-12T11:12:59.865Z,100409.20
2022-08-12T11:13:46.036Z,100401.34
2022-08-12T11:14:50.458Z,100407.20
2022-08-12T11:16:03.660Z,100401.78
2022-08-12T11:17:22.222Z,100407.27
2022-08-12T11:18:03.122Z,100394.42
2022-08-12T11:19:05.670Z,100395.77
2022-08-12T11:20:09.513Z,100377.55
2022-08-12T11:21:15.897Z,100385.69
2022-08-12T11:22:18.370Z,100389.77
2022-08-12T11:23:36.718Z,100389.95
2022-08-12T11:24:32.288Z,100386.23
2022-08-12T11:25:56.335Z,100385.17
2022-08-12T11:26:40.335Z,100376.80
2022-08-12T11:27:43.218Z,100381.34
2022-08-12T11:28:45.745Z,100384.70
2022-08-12T11:30:06.270Z,100377.91
2022-08-12T11:30:54.933Z,100383.52
2022-08-12T11:32:02.667Z,100389.12
2022-08-12T11:33:01.967Z,100391.47
2022-08-12T11:34:51.103Z,100346.04
2022-08-12T11:35:11.551Z,100392.13
2022-08-12T11:36:16.028Z,100386.81
2022-08-12T11:37:26.099Z,100387.69
2022-08-12T11:38:23.316Z,100394.90
2022-08-12T11:39:46.498Z,100394.72
2022-08-12T11:40:31.411Z,100388.46
2022-08-12T11:41:34.858Z,100390.19
2022-08-12T11:42:45.885Z,100391.70
2022-08-12T11:43:50.224Z,100389.13
2022-08-12T11:44:46.830Z,100385.17
2022-08-12T11:45:56.647Z,100396.20
2022-08-12T11:46:53.779Z,100398.73
2022-08-12T11:47:57.456Z,100393.32
2022-08-12T11:48:59.932Z,100396.34
2022-08-12T11:50:05.645Z,100390.96
2022-08-12T11:51:09.990Z,100403.20
2022-08-12T11:52:17.582Z,100390.83
2022-08-12T11:53:57.016Z,100397.58
2022-08-12T11:54:21.641Z,100389.65
2022-08-12T11:55:25.494Z,100389.48
2022-08-12T11:56:38.440Z,100395.08
2022-08-12T11:58:17.212Z,100394.73
2022-08-12T12:00:31.842Z,100397.09
2022-08-12T12:02:01.791Z,100407.52
2022-08-12T12:02:55.991Z,100411.28
2022-08-12T12:03:58.632Z,100409.58
2022-08-12T12:05:01.032Z,100417.31
2022-08-12T12:06:07.159Z,100416.95
2022-08-12T12:07:11.703Z,100425.70
2022-08-12T12:08:41.111Z,100416.55
2022-08-12T12:09:29.791Z,100423.14
2022-08-12T12:10:34.378Z,100413.13
2022-08-12T12:11:49.304Z,100417.89
2022-08-12T12:12:49.646Z,100417.35
2022-08-12T12:14:07.271Z,100419.89
2022-08-12T12:14:54.171Z,100417.30
2022-08-12T12:15:57.187Z,100417.34
2022-08-12T12:17:01.575Z,100413.97
2022-08-12T12:18:04.261Z,100419.77
2022-08-12T12:19:07.225Z,100413.97
2022-08-12T12:20:12.539Z,100419.77
2022-08-12T12:21:15.227Z,100424.33
2022-08-12T12:22:23.451Z,100421.83
2022-08-12T12:23:28.883Z,100414.33
2022-08-12T12:24:26.620Z,100420.78
2022-08-12T12:25:59.243Z,100412.56
2022-08-12T12:26:35.017Z,100416.63
2022-08-12T12:28:04.477Z,100383.33
2022-08-12T12:28:54.233Z,100404.70
2022-08-12T12:30:19.045Z,100413.80
2022-08-12T12:31:04.172Z,100398.41
2022-08-12T12:32:10.709Z,100400.77